Time;durP1;ratioP1;P1;durP2;ratioP2;P2;SDS_P1;SDS_P2;PMS_P1;PMS_P2;Temp;Humidity;BMP_temperature;BMP_pressure;BME280_temperature;BME280_humidity;BME280_pressure;Samples;Min_cycle;Max_cycle;Signal;HPM_P1;HPM_P2
2021/09/04 00:02:36;;;;;;;10.08;8.53;;;;;;;9.86;67.15;101116.05;1676500;82;21372;-79
2021/09/04 00:05:09;;;;;;;12.63;8.68;;;;;;;9.81;67.28;101121.23;1667215;84;21436;-79
2021/09/04 00:07:35;;;;;;;11.55;8.78;;;;;;;9.79;67.22;101118.23;1666760;85;21039;-79
2021/09/04 00:10:02;;;;;;;12.43;8.78;;;;;;;9.76;67.22;101125.56;1684390;84;21392;-79
2021/09/04 00:12:29;;;;;;;11.63;8.53;;;;;;;9.74;67.21;101123.84;1668334;85;21078;-79
2021/09/04 00:14:56;;;;;;;;;;;;;;;9.70;67.22;101128.17;1647498;87;21088;-79
2021/09/04 00:17:24;;;;;;;9.45;8.03;;;;;;;9.68;67.78;101129.04;1667262;83;20188;-79
2021/09/04 00:19:50;;;;;;;10.93;9.13;;;;;;;9.65;67.47;101127.33;1668219;84;21008;-79
2021/09/04 00:22:17;;;;;;;16.90;10.82;;;;;;;9.65;67.51;101122.16;1668339;85;21066;-79
2021/09/04 00:24:43;;;;;;;12.53;9.48;;;;;;;9.63;67.44;101131.20;1668187;85;21062;-79
2021/09/04 00:27:09;;;;;;;15.23;9.30;;;;;;;9.59;67.47;101129.50;1667822;84;21322;-79
2021/09/04 00:29:36;;;;;;;13.85;8.85;;;;;;;9.57;67.61;101129.08;1699025;84;21031;-79
2021/09/04 00:32:04;;;;;;;13.62;8.98;;;;;;;9.56;67.56;101128.66;1660397;84;21118;-79
2021/09/04 00:34:30;;;;;;;10.50;8.53;;;;;;;9.52;67.57;101129.52;1695479;84;21199;-79
2021/09/04 00:36:57;;;;;;;11.55;9.28;;;;;;;9.50;67.61;101130.82;1696144;84;21057;-79
2021/09/04 00:39:23;;;;;;;13.50;9.50;;;;;;;9.46;67.60;101131.69;1671663;84;21342;-79
2021/09/04 00:41:50;;;;;;;15.93;10.32;;;;;;;9.46;67.72;101135.56;1669032;84;21416;-79
2021/09/04 00:44:20;;;;;;;11.48;8.70;;;;;;;9.45;67.89;101132.55;1680678;84;20953;-79
2021/09/04 00:46:46;;;;;;;13.15;9.75;;;;;;;9.44;67.83;101129.98;1683989;84;20963;-79
2021/09/04 00:49:14;;;;;;;13.10;9.58;;;;;;;9.42;67.81;101134.29;1669525;85;20952;-79
2021/09/04 00:51:40;;;;;;;14.60;9.98;;;;;;;9.40;67.90;101131.71;1682656;84;21307;-79
2021/09/04 00:54:07;;;;;;;11.12;8.60;;;;;;;9.38;67.88;101126.98;1702903;84;20877;-79
2021/09/04 00:56:34;;;;;;;13.75;8.83;;;;;;;9.35;67.87;101133.48;1685020;84;20951;-79
2021/09/04 00:59:06;;;;;;;13.53;9.23;;;;;;;9.31;67.83;101136.07;1660023;85;20967;-79
2021/09/04 01:01:33;;;;;;;11.78;8.38;;;;;;;9.27;67.87;101133.92;1666822;84;20959;-79
2021/09/04 01:03:59;;;;;;;11.10;8.78;;;;;;;9.24;67.99;101138.66;1698518;83;21364;-79
2021/09/04 01:06:29;;;;;;;13.85;9.38;;;;;;;9.21;68.04;101133.50;1706238;83;20935;-79
2021/09/04 01:08:56;;;;;;;14.30;8.98;;;;;;;9.18;67.96;101135.23;1698854;84;20930;-79
2021/09/04 01:11:23;;;;;;;10.65;8.50;;;;;;;9.16;68.08;101142.12;1698769;83;20903;-79
2021/09/04 01:13:50;;;;;;;12.95;8.65;;;;;;;9.13;68.05;101139.11;1678797;84;20930;-79
2021/09/04 01:16:17;;;;;;;11.15;8.55;;;;;;;9.08;68.02;101140.84;1698964;84;20934;-79
2021/09/04 01:18:46;;;;;;;8.63;6.62;;;;;;;9.05;68.03;101141.27;1699052;84;20923;-79
2021/09/04 01:21:13;;;;;;;13.62;7.70;;;;;;;9.01;68.05;101138.27;1709920;83;20907;-79
2021/09/04 01:23:39;;;;;;;9.10;8.18;;;;;;;8.95;68.05;101145.58;1697616;84;20883;-79
2021/09/04 01:26:10;;;;;;;16.25;8.88;;;;;;;8.81;68.17;101126.70;1696883;84;20935;-79
2021/09/04 01:28:39;;;;;;;12.98;8.35;;;;;;;8.89;68.26;101145.16;1697502;83;21031;-79
2021/09/04 01:31:06;;;;;;;12.80;8.55;;;;;;;8.89;68.32;101142.58;1697133;84;20919;-79
2021/09/04 01:33:32;;;;;;;14.13;8.60;;;;;;;8.89;68.31;101147.73;1698176;83;20899;-79
2021/09/04 01:35:59;;;;;;;13.65;8.68;;;;;;;8.87;68.36;101150.73;1697591;83;20967;-79
2021/09/04 01:38:25;;;;;;;;;;;;;;;8.86;68.34;101146.88;1700099;84;21124;-79
2021/09/04 01:40:52;;;;;;;11.12;8.20;;;;;;;8.82;68.81;101146.05;1696501;83;20118;-79
2021/09/04 01:43:19;;;;;;;11.73;8.38;;;;;;;8.79;68.40;101144.76;1697054;84;21050;-79
2021/09/04 01:45:47;;;;;;;14.07;8.08;;;;;;;8.79;68.56;101142.17;1697084;84;21065;-79
2021/09/04 01:48:13;;;;;;;11.90;8.80;;;;;;;8.78;68.51;101143.04;1697443;84;21066;-79
2021/09/04 01:50:40;;;;;;;12.63;9.10;;;;;;;8.77;68.59;101144.33;1694209;83;21074;-79
2021/09/04 01:53:06;;;;;;;13.20;9.80;;;;;;;8.73;68.54;101141.32;1698705;83;21090;-79
2021/09/04 01:55:35;;;;;;;13.93;8.63;;;;;;;8.71;68.65;101138.73;1698639;83;21030;-79
2021/09/04 01:58:05;;;;;;;16.25;9.43;;;;;;;8.72;68.72;101140.89;1697438;84;21051;-79
2021/09/04 02:00:31;;;;;;;14.90;9.18;;;;;;;8.67;68.63;101138.73;1696861;83;21101;-79
2021/09/04 02:02:57;;;;;;;13.70;9.05;;;;;;;8.66;68.74;101139.17;1695967;83;21046;-79
2021/09/04 02:05:31;;;;;;;8.15;7.35;;;;;;;8.64;68.83;101131.86;1685590;85;21084;-79
2021/09/04 02:07:59;;;;;;;11.12;8.13;;;;;;;8.65;68.83;101133.58;1674976;84;21016;-79
2021/09/04 02:10:25;;;;;;;13.60;9.03;;;;;;;8.62;68.73;101137.45;1675392;84;20968;-79
2021/09/04 02:12:52;;;;;;;11.97;8.25;;;;;;;8.58;68.75;101140.88;1665524;84;20940;-79
2021/09/04 02:15:18;;;;;;;14.45;9.18;;;;;;;8.57;69.04;101140.02;1668681;84;21538;-79
2021/09/04 02:17:45;;;;;;;13.50;9.15;;;;;;;8.58;68.98;101137.88;1678831;84;21082;-79
2021/09/04 02:20:12;;;;;;;;;;;;;;;8.57;68.97;101140.02;1611227;88;21136;-79
2021/09/04 02:22:38;;;;;;;9.30;7.67;;;;;;;8.54;69.26;101132.29;1608869;89;20535;-79
2021/09/04 02:25:06;;;;;;;12.03;8.58;;;;;;;8.51;68.98;101135.30;1628086;85;21079;-79
2021/09/04 02:27:33;;;;;;;10.03;7.72;;;;;;;8.49;69.02;101131.42;1688924;84;20965;-79
2021/09/04 02:29:59;;;;;;;9.45;7.70;;;;;;;8.46;68.91;101134.00;1663853;84;20965;-79
2021/09/04 02:32:25;;;;;;;11.38;8.15;;;;;;;8.42;68.94;101136.57;1669185;84;20954;-79
2021/09/04 02:34:55;;;;;;;15.53;8.35;;;;;;;8.39;69.06;101137.42;1668270;84;21031;-79
2021/09/04 02:37:22;;;;;;;13.18;9.13;;;;;;;8.36;69.05;101137.42;1684153;84;20947;-79
2021/09/04 02:39:49;;;;;;;13.90;9.83;;;;;;;8.35;69.19;101142.56;1671496;84;20945;-79
2021/09/04 02:42:16;;;;;;;13.08;9.73;;;;;;;8.32;69.21;101142.56;1668549;84;21404;-79
2021/09/04 02:44:43;;;;;;;11.33;8.63;;;;;;;8.30;69.20;101142.13;1669373;85;21090;-79
2021/09/04 02:47:09;;;;;;;9.35;8.13;;;;;;;8.29;69.23;101141.70;1669532;85;22334;-79
2021/09/04 02:49:36;;;;;;;15.48;9.90;;;;;;;8.27;69.29;101145.99;1668984;85;21351;-79
2021/09/04 02:52:02;;;;;;;13.45;9.43;;;;;;;8.30;69.42;101150.29;1684242;84;20900;-79
2021/09/04 02:54:30;;;;;;;10.58;7.83;;;;;;;8.33;69.42;101141.70;1679350;84;20901;-79
2021/09/04 02:56:57;;;;;;;12.43;8.20;;;;;;;8.30;69.33;101142.13;1675156;84;20923;-79
2021/09/04 02:59:23;;;;;;;9.83;7.47;;;;;;;8.27;69.29;101138.69;1668936;84;20971;-79
2021/09/04 03:01:51;;;;;;;10.53;8.08;;;;;;;8.23;69.28;101138.25;1681582;84;20910;-79
2021/09/04 03:04:18;;;;;;;9.05;7.28;;;;;;;8.20;69.36;101139.53;1668856;85;20971;-79
2021/09/04 03:06:44;;;;;;;10.35;7.03;;;;;;;8.21;69.44;101142.54;1668771;85;20888;-79
2021/09/04 03:09:13;;;;;;;8.43;7.17;;;;;;;8.17;69.37;101136.95;1669475;84;20963;-79
2021/09/04 03:11:40;;;;;;;11.93;8.10;;;;;;;8.13;69.36;101136.08;1668465;85;21107;-79
2021/09/04 03:14:06;;;;;;;10.90;7.97;;;;;;;8.08;69.40;101135.64;1623109;86;21119;-79
2021/09/04 03:16:33;;;;;;;10.58;8.13;;;;;;;8.06;69.46;101138.64;1624129;85;21112;-79
2021/09/04 03:18:59;;;;;;;13.53;8.58;;;;;;;8.04;69.56;101142.50;1693617;84;21056;-79
2021/09/04 03:21:26;;;;;;;11.60;8.38;;;;;;;8.02;69.49;101140.34;1693646;84;21069;-79
2021/09/04 03:23:52;;;;;;;11.90;9.33;;;;;;;8.00;69.51;101147.20;1686661;84;21143;-79
2021/09/04 03:26:18;;;;;;;13.55;9.33;;;;;;;7.96;69.52;101142.47;1636647;86;22142;-79
2021/09/04 03:28:45;;;;;;;17.07;8.38;;;;;;;7.93;69.66;101146.33;1680592;83;21038;-79
2021/09/04 03:31:12;;;;;;;11.50;8.25;;;;;;;7.92;69.65;101147.18;1656380;84;21004;-79
2021/09/04 03:33:38;;;;;;;9.20;7.20;;;;;;;7.91;69.63;101142.02;1660642;84;21112;-79
2021/09/04 03:36:04;;;;;;;11.45;7.47;;;;;;;7.88;69.62;101149.31;1694922;84;21063;-79
2021/09/04 03:38:32;;;;;;;12.28;8.35;;;;;;;7.85;69.62;101149.30;1694413;84;21000;-79
2021/09/04 03:40:58;;;;;;;11.30;7.55;;;;;;;7.83;69.64;101158.73;1682106;84;21081;-79
2021/09/04 03:43:24;;;;;;;11.57;7.90;;;;;;;7.83;69.85;101160.02;1688492;84;21059;-79
2021/09/04 03:45:50;;;;;;;10.30;7.97;;;;;;;7.81;69.69;101162.16;1673689;84;21410;-79
2021/09/04 03:48:17;;;;;;;10.58;7.60;;;;;;;7.78;69.87;101174.61;1667919;85;21094;-79
2021/09/04 03:50:43;;;;;;;11.80;7.67;;;;;;;7.77;69.91;101169.46;1677693;84;28496;-79
2021/09/04 03:53:10;;;;;;;10.32;7.87;;;;;;;7.77;69.91;101170.32;1701195;84;21047;-79
2021/09/04 03:55:36;;;;;;;15.25;8.50;;;;;;;7.75;69.82;101173.31;1662052;84;21127;-79
2021/09/04 03:58:03;;;;;;;9.90;6.92;;;;;;;7.74;69.86;101163.02;1666775;84;27743;-79
2021/09/04 04:00:29;;;;;;;11.05;7.47;;;;;;;7.72;69.88;101159.14;1666738;85;21583;-79
2021/09/04 04:02:55;;;;;;;13.13;8.08;;;;;;;7.71;69.94;101157.42;1666439;84;21006;-79
2021/09/04 04:05:22;;;;;;;14.53;8.83;;;;;;;7.70;70.04;101159.98;1703302;83;21486;-79
2021/09/04 04:07:48;;;;;;;12.23;7.90;;;;;;;7.70;70.02;101165.14;1698121;83;20959;-79
2021/09/04 04:10:18;;;;;;;9.45;7.75;;;;;;;7.68;69.95;101165.55;1696297;83;21066;-79
2021/09/04 04:12:45;;;;;;;11.68;7.83;;;;;;;7.67;70.13;101161.27;1699425;83;21125;-79
2021/09/04 04:15:12;;;;;;;11.18;7.62;;;;;;;7.66;70.08;101162.98;1724177;83;22904;-79
2021/09/04 04:17:39;;;;;;;11.05;7.83;;;;;;;7.64;70.14;101165.54;1669085;85;21081;-79
2021/09/04 04:20:07;;;;;;;14.63;9.18;;;;;;;7.66;70.13;101173.70;1679976;83;21082;-79
2021/09/04 04:22:33;;;;;;;11.65;8.30;;;;;;;7.65;70.16;101171.55;1711771;83;20931;-79
2021/09/04 04:25:00;;;;;;;19.80;8.03;;;;;;;7.66;70.31;101168.13;1702543;83;20933;-79
2021/09/04 04:27:26;;;;;;;10.82;7.83;;;;;;;7.66;70.31;101177.13;1712425;83;21482;-79
2021/09/04 04:29:52;;;;;;;11.70;9.00;;;;;;;7.65;70.21;101172.84;1706092;83;20949;-79
2021/09/04 04:32:25;;;;;;;13.30;8.60;;;;;;;7.63;70.23;101174.55;1701968;83;20918;-79
2021/09/04 04:34:51;;;;;;;10.72;8.58;;;;;;;7.63;70.36;101174.11;1698989;84;21387;-79
2021/09/04 04:37:18;;;;;;;11.75;8.50;;;;;;;7.64;70.35;101178.84;1686951;82;407237;-79
2021/09/04 04:39:44;;;;;;;10.18;8.20;;;;;;;7.64;70.26;101182.27;1703308;83;21404;-79
2021/09/04 04:42:10;;;;;;;12.93;8.35;;;;;;;7.66;70.45;101178.84;1703067;83;20942;-79
2021/09/04 04:44:40;;;;;;;10.75;7.95;;;;;;;7.67;70.38;101187.86;1703130;84;20912;-78
2021/09/04 04:47:07;;;;;;;11.85;8.38;;;;;;;7.70;70.44;101193.45;1688421;83;20891;-79
2021/09/04 04:49:33;;;;;;;11.05;8.10;;;;;;;7.72;70.41;101194.32;1687795;83;20924;-79
2021/09/04 04:51:59;;;;;;;15.30;9.08;;;;;;;7.74;70.50;101193.47;1692216;83;21510;-79
2021/09/04 04:54:26;;;;;;;15.98;9.40;;;;;;;7.79;70.59;101199.50;1689412;83;20995;-79
2021/09/04 04:56:53;;;;;;;19.55;9.15;;;;;;;7.86;70.70;101195.22;1686670;83;20895;-79
2021/09/04 04:59:19;;;;;;;;;;;;;;;7.94;70.79;101190.53;1684595;83;21424;-79
2021/09/04 05:01:46;;;;;;;11.38;7.95;;;;;;;8.06;71.34;101194.88;1686924;84;20672;-79
2021/09/04 05:04:14;;;;;;;14.63;8.55;;;;;;;8.16;70.99;101193.19;1684600;83;21002;-79
2021/09/04 05:06:41;;;;;;;11.35;8.48;;;;;;;8.25;70.86;101196.66;1689013;83;20910;-79
2021/09/04 05:09:07;;;;;;;13.40;8.55;;;;;;;8.34;70.99;101188.09;1689900;83;20935;-79
2021/09/04 05:11:34;;;;;;;13.15;8.35;;;;;;;8.48;71.00;101198.43;1689796;83;20888;-79
2021/09/04 05:14:00;;;;;;;9.88;7.80;;;;;;;8.53;71.00;101184.70;1688301;83;21356;-79
2021/09/04 05:16:26;;;;;;;12.15;8.13;;;;;;;8.71;70.88;101194.59;1684409;83;20935;-79
2021/09/04 05:18:53;;;;;;;14.90;8.80;;;;;;;8.79;70.99;101201.48;1681718;83;20885;-79
2021/09/04 05:21:19;;;;;;;14.60;8.68;;;;;;;8.89;71.14;101198.45;1688959;83;21002;-79
2021/09/04 05:23:45;;;;;;;12.80;9.30;;;;;;;9.00;71.12;101192.00;1686687;83;21022;-79
2021/09/04 05:26:24;;;;;;;16.15;9.48;;;;;;;9.10;71.18;101195.87;1684284;83;21424;-79
2021/09/04 05:28:51;;;;;;;9.33;8.33;;;;;;;9.24;71.20;101199.73;1670495;84;20922;-79
2021/09/04 05:31:17;;;;;;;9.68;8.68;;;;;;;9.37;71.26;101189.79;1692538;83;21519;-79
2021/09/04 05:33:44;;;;;;;9.73;8.08;;;;;;;9.55;71.35;101193.63;1686052;83;21405;-79
2021/09/04 05:36:11;;;;;;;10.78;8.48;;;;;;;9.80;71.45;101193.55;1680525;83;20931;-79
2021/09/04 05:38:38;;;;;;;11.78;9.05;;;;;;;10.03;71.40;101195.59;1677256;84;21054;-79
2021/09/04 05:41:06;;;;;;;11.35;9.25;;;;;;;10.23;71.36;101195.09;1682128;83;20975;-79
2021/09/04 05:43:33;;;;;;;15.58;10.30;;;;;;;10.45;71.40;101189.34;1686087;83;21018;-79
2021/09/04 05:45:59;;;;;;;18.52;11.15;;;;;;;10.69;71.46;101197.80;1675551;84;21079;-79
2021/09/04 05:48:25;;;;;;;14.07;12.58;;;;;;;10.94;71.56;101200.60;1674028;85;21105;-79
2021/09/04 05:51:04;;;;;;;20.02;12.63;;;;;;;11.22;71.58;101203.81;1680935;84;21068;-79
2021/09/04 05:53:30;;;;;;;29.45;18.48;;;;;;;11.51;71.57;101200.91;1683075;83;21527;-80
2021/09/04 05:55:59;;;;;;;30.30;20.75;;;;;;;11.81;71.67;101203.20;1665179;84;21097;-80
2021/09/04 05:58:33;;;;;;;24.95;18.82;;;;;;;12.09;71.68;101200.25;1659255;85;21014;-79
2021/09/04 06:00:59;;;;;;;20.55;13.45;;;;;;;12.38;71.67;101203.76;1688108;83;21007;-82
2021/09/04 06:03:26;;;;;;;18.67;13.62;;;;;;;12.63;71.66;101203.80;1662037;85;22290;-79
2021/09/04 06:05:57;;;;;;;12.53;10.90;;;;;;;12.88;71.68;101205.58;1668887;83;21602;-79
2021/09/04 06:08:24;;;;;;;15.48;10.78;;;;;;;13.14;71.72;101202.52;1665491;84;20954;-77
2021/09/04 06:10:51;;;;;;;12.60;10.20;;;;;;;13.41;71.79;101204.67;1665334;84;20930;-79
2021/09/04 06:13:21;;;;;;;14.50;10.60;;;;;;;13.77;71.84;101206.98;1664859;84;21719;-78
2021/09/04 06:15:47;;;;;;;17.62;10.53;;;;;;;14.15;71.78;101205.33;1663350;84;21093;-78
2021/09/04 06:18:14;;;;;;;19.10;12.40;;;;;;;14.54;71.85;101202.33;1665822;85;21150;-78
2021/09/04 06:20:41;;;;;;;12.85;10.35;;;;;;;14.94;71.73;101210.03;1664229;84;21001;-78
2021/09/04 06:23:08;;;;;;;15.20;9.50;;;;;;;15.30;71.68;101209.97;1663989;84;21417;-78
2021/09/04 06:25:34;;;;;;;17.02;8.83;;;;;;;15.68;71.73;101216.33;1666125;85;21165;-79
2021/09/04 06:28:01;;;;;;;12.90;9.65;;;;;;;16.00;71.60;101212.83;1665834;85;21544;-81
2021/09/04 06:30:27;;;;;;;16.67;9.25;;;;;;;16.32;71.59;101211.00;1664724;85;21074;-81
2021/09/04 06:32:53;;;;;;;13.72;8.70;;;;;;;16.67;71.60;101214.69;1664637;84;21066;-81
2021/09/04 06:35:23;;;;;;;14.80;8.53;;;;;;;17.00;71.57;101213.20;1670366;84;21540;-83
2021/09/04 06:37:49;;;;;;;9.03;7.78;;;;;;;17.16;71.20;101209.15;1660133;84;21002;-83
2021/09/04 06:40:15;;;;;;;10.55;8.30;;;;;;;17.15;71.16;101216.63;1663664;84;21018;-83
2021/09/04 06:42:41;;;;;;;10.53;8.23;;;;;;;17.18;71.26;101216.48;1663776;86;21046;-83
2021/09/04 06:45:08;;;;;;;9.23;8.10;;;;;;;17.37;71.40;101219.33;1665207;84;21105;-83
2021/09/04 06:47:35;;;;;;;9.83;7.87;;;;;;;17.52;71.34;101210.50;1667431;84;21429;-83
2021/09/04 06:50:02;;;;;;;11.85;8.00;;;;;;;17.77;71.31;101220.95;1665447;85;21540;-83
2021/09/04 06:52:30;;;;;;;10.43;7.72;;;;;;;17.92;71.17;101226.09;1661304;86;21496;-83
2021/09/04 06:54:57;;;;;;;13.98;8.33;;;;;;;18.06;71.20;101230.36;1664052;84;21556;-83
2021/09/04 06:57:23;;;;;;;11.70;7.80;;;;;;;18.25;71.20;101225.26;1663066;86;21047;-83
2021/09/04 07:00:05;;;;;;;9.28;7.10;;;;;;;18.47;71.19;101228.77;1662684;86;21566;-83
2021/09/04 07:02:31;;;;;;;11.83;8.00;;;;;;;18.64;71.08;101232.52;1669697;85;21074;-84
2021/09/04 07:04:57;;;;;;;9.10;7.65;;;;;;;18.88;71.06;101236.76;1676288;83;21028;-84
2021/09/04 07:07:24;;;;;;;9.35;7.42;;;;;;;19.06;70.89;101233.39;1671079;84;21572;-83
2021/09/04 07:09:53;;;;;;;10.30;7.85;;;;;;;19.25;70.86;101233.91;1662101;85;21295;-83
2021/09/04 07:12:20;;;;;;;11.22;8.20;;;;;;;19.41;70.76;101227.95;1652250;84;21587;-83
2021/09/04 07:14:46;;;;;;;;;;;;;;;19.61;70.80;101225.81;1659783;84;21943;-82
2021/09/04 07:17:13;;;;;;;11.15;6.72;;;;;;;19.80;69.99;101232.39;1667001;84;20440;-82
2021/09/04 07:19:39;;;;;;;9.60;7.47;;;;;;;19.81;70.40;101226.22;1666743;84;21151;-82
2021/09/04 07:22:06;;;;;;;9.70;7.37;;;;;;;19.89;70.53;101231.98;1668892;84;21076;-81
2021/09/04 07:24:32;;;;;;;8.13;7.30;;;;;;;20.02;70.58;101234.44;1672879;84;27206;-81
2021/09/04 07:26:58;;;;;;;10.63;7.10;;;;;;;20.16;70.39;101229.87;1659744;84;21709;-81
2021/09/04 07:29:25;;;;;;;6.78;6.08;;;;;;;20.21;70.37;101226.58;1665556;84;21797;-81
2021/09/04 07:31:53;;;;;;;8.25;6.65;;;;;;;20.23;70.30;101224.73;1676821;84;21032;-81
2021/09/04 07:34:20;;;;;;;7.90;7.05;;;;;;;20.36;70.43;101222.36;1668769;84;21537;-81
2021/09/04 07:36:49;;;;;;;9.03;6.17;;;;;;;20.51;70.29;101230.02;1671643;84;21061;-81
2021/09/04 07:39:17;;;;;;;7.87;6.22;;;;;;;20.62;70.51;101229.05;1675082;84;21568;-81
2021/09/04 07:41:43;;;;;;;7.37;6.12;;;;;;;21.02;71.12;101231.41;1674899;85;21108;-81
2021/09/04 07:44:09;;;;;;;6.17;5.65;;;;;;;21.52;70.67;101231.96;1666759;84;21509;-81
2021/09/04 07:46:39;;;;;;;5.85;5.35;;;;;;;21.80;70.22;101232.69;1668478;84;21474;-81
2021/09/04 07:49:05;;;;;;;6.08;5.47;;;;;;;22.09;69.49;101233.30;1669615;85;21128;-81
2021/09/04 07:51:32;;;;;;;7.95;5.12;;;;;;;22.23;68.60;101241.78;1668788;84;21495;-81
2021/09/04 07:53:59;;;;;;;7.15;5.20;;;;;;;22.20;68.27;101242.41;1668253;84;21488;-81
2021/09/04 07:56:27;;;;;;;7.17;4.97;;;;;;;22.20;68.14;101239.78;1666782;85;21117;-81
2021/09/04 07:58:53;;;;;;;6.00;4.92;;;;;;;22.24;67.97;101245.27;1666342;85;21098;-81
2021/09/04 08:01:22;;;;;;;5.80;4.90;;;;;;;22.15;67.72;101244.45;1666529;84;21459;-81
2021/09/04 08:03:48;;;;;;;7.47;5.00;;;;;;;22.00;67.64;101243.45;1667143;84;21099;-81
2021/09/04 08:06:15;;;;;;;5.28;4.78;;;;;;;21.84;67.57;101244.73;1665545;84;21633;-81
2021/09/04 08:08:41;;;;;;;5.78;4.37;;;;;;;21.59;67.38;101246.50;1662622;85;21482;-81
2021/09/04 08:11:07;;;;;;;4.80;4.28;;;;;;;21.41;67.18;101244.34;1662562;85;21510;-81
2021/09/04 08:13:34;;;;;;;6.08;4.47;;;;;;;21.17;67.14;101246.05;1663208;84;21118;-81
2021/09/04 08:16:00;;;;;;;5.78;4.92;;;;;;;21.10;67.10;101243.72;1662480;85;21572;-81
2021/09/04 08:18:27;;;;;;;4.67;4.12;;;;;;;21.13;67.26;101248.83;1669670;85;21578;-81
2021/09/04 08:20:53;;;;;;;7.08;4.10;;;;;;;21.18;67.09;101246.44;1663293;85;21971;-81
2021/09/04 08:23:19;;;;;;;4.15;3.77;;;;;;;21.18;67.04;101253.01;1664518;84;21069;-81
2021/09/04 08:25:46;;;;;;;7.17;4.50;;;;;;;21.24;66.85;101252.73;1664284;84;21513;-81
2021/09/04 08:28:12;;;;;;;5.65;4.53;;;;;;;21.27;66.61;101253.44;1666301;84;21078;-81
2021/09/04 08:30:39;;;;;;;5.92;4.42;;;;;;;21.25;66.48;101255.29;1665414;84;21474;-81
2021/09/04 08:33:06;;;;;;;5.28;4.03;;;;;;;21.18;66.28;101251.69;1664764;84;21902;-82
2021/09/04 08:35:32;;;;;;;4.40;3.95;;;;;;;21.09;66.11;101253.00;1653313;84;21650;-82
2021/09/04 08:38:04;;;;;;;5.72;4.53;;;;;;;21.09;66.13;101250.37;1667617;84;21711;-81
2021/09/04 08:40:29;;;;;;;5.47;4.70;;;;;;;21.34;65.89;101257.42;1664753;84;21609;-81
2021/09/04 08:42:55;;;;;;;8.53;4.75;;;;;;;21.57;65.71;101260.20;1663404;84;21066;-81
2021/09/04 08:45:21;;;;;;;8.15;4.47;;;;;;;21.84;66.02;101258.36;1668945;84;21130;-81
2021/09/04 08:47:51;;;;;;;4.42;3.98;;;;;;;22.18;66.65;101256.98;1653811;86;21085;-81
2021/09/04 08:50:18;;;;;;;4.37;3.98;;;;;;;22.80;67.38;101257.09;1664848;84;21075;-81
2021/09/04 08:52:45;;;;;;;6.58;4.35;;;;;;;23.68;67.34;101267.24;1665191;85;21626;-81
2021/09/04 08:55:11;;;;;;;5.35;4.60;;;;;;;24.55;66.69;101258.30;1657725;86;21117;-81
2021/09/04 08:57:38;;;;;;;5.12;4.17;;;;;;;25.03;65.21;101255.12;1663905;84;21107;-81
2021/09/04 09:00:06;;;;;;;5.37;4.47;;;;;;;23.99;64.55;101254.78;1664260;86;21571;-81
2021/09/04 09:02:34;;;;;;;5.92;4.47;;;;;;;23.62;64.33;101255.73;1666150;84;21114;-81
2021/09/04 09:05:07;;;;;;;5.65;4.00;;;;;;;22.93;64.23;101254.11;1666881;84;21032;-81
2021/09/04 09:07:46;;;;;;;5.35;4.72;;;;;;;22.39;64.20;101253.16;1667885;85;21546;-81
2021/09/04 09:10:28;;;;;;;4.70;4.30;;;;;;;21.94;63.86;101255.16;1686987;83;21108;-81
2021/09/04 09:12:54;;;;;;;5.70;4.15;;;;;;;21.50;63.73;101249.61;1686246;83;21090;-81
2021/09/04 09:15:26;;;;;;;4.90;4.05;;;;;;;21.19;63.56;101250.77;1687675;84;21017;-81
2021/09/04 09:18:12;;;;;;;5.33;4.42;;;;;;;20.91;63.34;101241.60;1686842;83;21066;-81
2021/09/04 09:20:46;;;;;;;4.58;3.87;;;;;;;20.64;63.15;101246.45;1698862;83;21106;-81
2021/09/04 09:23:19;;;;;;;5.42;4.42;;;;;;;20.43;63.21;101241.73;1686885;83;21161;-81
2021/09/04 09:25:48;;;;;;;4.90;4.40;;;;;;;20.32;63.08;101247.92;1707750;83;21025;-81
2021/09/04 09:28:21;;;;;;;5.15;4.65;;;;;;;20.25;62.85;101244.36;1713888;83;21052;-81
2021/09/04 09:30:56;;;;;;;4.45;3.75;;;;;;;20.16;62.63;101246.48;1699001;83;371396;-81
2021/09/04 09:33:27;;;;;;;5.92;4.70;;;;;;;20.08;62.54;101243.81;1686575;83;20916;-81
2021/09/04 09:36:06;;;;;;;4.85;4.15;;;;;;;20.02;62.37;101244.09;1687712;83;20972;-81
2021/09/04 09:38:34;;;;;;;7.83;4.87;;;;;;;19.96;62.18;101240.43;1688559;83;21114;-81
2021/09/04 09:41:03;;;;;;;4.40;3.45;;;;;;;19.89;62.14;101245.10;1685695;84;21071;-81
2021/09/04 09:43:35;;;;;;;4.50;4.00;;;;;;;19.85;62.09;101238.28;1687983;84;20936;-81
2021/09/04 09:46:08;;;;;;;6.58;4.05;;;;;;;19.82;61.93;101247.61;1689040;83;20924;-81
2021/09/04 09:48:40;;;;;;;5.97;4.62;;;;;;;19.80;61.90;101252.06;1709952;83;21357;-81
2021/09/04 09:51:09;;;;;;;5.05;4.42;;;;;;;19.77;61.67;101241.24;1702379;83;21009;-81
2021/09/04 09:53:36;;;;;;;5.15;4.33;;;;;;;19.73;61.59;101241.02;1677183;83;20931;-81
2021/09/04 09:56:04;;;;;;;4.53;4.08;;;;;;;19.74;61.61;101240.56;1698109;83;20936;-81
2021/09/04 09:58:30;;;;;;;5.80;4.00;;;;;;;19.76;61.52;101239.55;1696029;83;20926;-81
2021/09/04 10:00:58;;;;;;;8.63;3.90;;;;;;;19.73;61.26;101237.55;1692391;83;20919;-81
2021/09/04 10:03:34;;;;;;;5.42;4.17;;;;;;;19.69;61.36;101238.14;1687818;85;20963;-81
2021/09/04 10:06:02;;;;;;;4.28;3.65;;;;;;;19.69;61.20;101242.08;1686561;83;21067;-81
2021/09/04 10:08:29;;;;;;;5.65;3.83;;;;;;;19.65;61.07;101246.20;1696553;83;21132;-81
2021/09/04 10:11:05;;;;;;;4.17;3.77;;;;;;;19.55;60.98;101241.81;1675316;85;21035;-82
2021/09/04 10:13:30;;;;;;;4.67;3.90;;;;;;;19.49;61.03;101249.45;1671455;85;21357;-82
2021/09/04 10:15:57;;;;;;;4.22;3.83;;;;;;;19.51;61.06;101250.73;1667796;84;21073;-81
2021/09/04 10:18:32;;;;;;;8.27;6.07;;;;;;;19.58;61.00;101254.80;1658566;85;21058;-81
2021/09/04 10:21:06;;;;;;;4.03;3.67;;;;;;;19.69;60.87;101247.78;1658786;85;21110;-81
2021/09/04 10:23:37;;;;;;;4.62;3.80;;;;;;;19.79;60.92;101252.53;1659144;86;20962;-81
2021/09/04 10:26:31;;;;;;;6.20;3.98;;;;;;;19.81;60.63;101253.77;1657079;85;20978;-81
2021/09/04 10:29:18;;;;;;;4.60;3.72;;;;;;;19.77;60.54;101256.14;1654674;86;21049;-81
2021/09/04 10:32:00;;;;;;;6.05;4.30;;;;;;;19.77;60.56;101254.37;1630304;87;21069;-81
2021/09/04 10:34:36;;;;;;;10.30;3.58;;;;;;;19.77;60.51;101254.83;1695763;83;21109;-81
2021/09/04 10:37:14;;;;;;;3.87;3.42;;;;;;;19.71;60.33;101255.98;1668989;84;21127;-81
2021/09/04 10:39:59;;;;;;;5.62;3.83;;;;;;;19.70;60.54;101251.65;1687071;84;21015;-81
2021/09/04 10:42:39;;;;;;;4.97;4.15;;;;;;;19.84;60.54;101251.87;1694571;83;21054;-81
2021/09/04 10:45:15;;;;;;;5.53;3.45;;;;;;;20.05;60.48;101248.75;1687520;84;21522;-81
2021/09/04 10:47:56;;;;;;;3.98;3.67;;;;;;;20.24;60.36;101244.83;1686893;83;21063;-81
2021/09/04 10:50:32;;;;;;;3.60;3.30;;;;;;;20.34;60.18;101239.51;1697831;83;21056;-81
2021/09/04 10:53:07;;;;;;;4.40;3.47;;;;;;;20.40;60.11;101241.88;1685485;85;21079;-81
2021/09/04 10:55:42;;;;;;;5.78;3.55;;;;;;;20.48;60.11;101242.84;1686090;84;21122;-81
2021/09/04 10:58:18;;;;;;;4.35;3.77;;;;;;;20.51;59.93;101246.63;1686504;83;21107;-81
2021/09/04 11:00:50;;;;;;;5.70;3.75;;;;;;;20.54;59.89;101241.70;1659688;85;21879;-81
2021/09/04 11:03:20;;;;;;;5.55;3.40;;;;;;;20.48;59.76;101246.31;1693084;83;21334;-81
2021/09/04 11:05:49;;;;;;;5.22;3.45;;;;;;;20.42;59.65;101243.97;1687938;83;21502;-81
2021/09/04 11:08:30;;;;;;;5.17;3.55;;;;;;;20.38;59.80;101245.05;1662918;84;21066;-81
2021/09/04 11:11:36;;;;;;;4.35;3.47;;;;;;;20.43;59.66;101239.57;1676503;85;21324;-81
2021/09/04 11:14:24;;;;;;;4.60;3.50;;;;;;;20.47;59.57;101241.98;1665933;84;20918;-81
2021/09/04 11:16:55;;;;;;;3.77;3.37;;;;;;;20.54;59.56;101245.64;1662503;84;20918;-81
2021/09/04 11:19:33;;;;;;;4.55;3.15;;;;;;;20.52;59.32;101246.17;1660662;85;20878;-81
2021/09/04 11:22:10;;;;;;;5.40;3.95;;;;;;;20.42;59.24;101249.23;1661631;85;20924;-81
2021/09/04 11:24:42;;;;;;;4.15;3.40;;;;;;;20.32;59.23;101245.75;1669125;84;21279;-81
2021/09/04 11:27:17;;;;;;;5.05;3.37;;;;;;;20.26;59.19;101251.32;1673104;84;20930;-81
2021/09/04 11:29:52;;;;;;;4.08;3.67;;;;;;;20.22;59.17;101249.30;1660306;84;21012;-81
2021/09/04 11:32:22;;;;;;;3.35;3.02;;;;;;;20.22;59.09;101242.73;1650478;85;21392;-81